sensor_id;sensor_type;location;lat;lon;timestamp;P1;durP1;ratioP1;P2;durP2;ratioP2
1414;SDS011;702;49.466;11.086;2022-09-09T00:00:25;3.40;;;1.77;;
1414;SDS011;702;49.466;11.086;2022-09-09T00:02:58;2.30;;;2.10;;
1414;SDS011;702;49.466;11.086;2022-09-09T00:05:34;4.53;;;2.30;;
1414;SDS011;702;49.466;11.086;2022-09-09T00:08:12;2.90;;;1.90;;
1414;SDS011;702;49.466;11.086;2022-09-09T00:10:48;2.43;;;1.90;;
1414;SDS011;702;49.466;11.086;2022-09-09T00:13:26;2.67;;;2.07;;
1414;SDS011;702;49.466;11.086;2022-09-09T00:16:00;2.23;;;1.80;;
1414;SDS011;702;49.466;11.086;2022-09-09T00:18:45;5.60;;;2.10;;
1414;SDS011;702;49.466;11.086;2022-09-09T00:21:22;4.77;;;2.00;;
1414;SDS011;702;49.466;11.086;2022-09-09T00:23:58;2.23;;;1.73;;
1414;SDS011;702;49.466;11.086;2022-09-09T00:26:32;2.17;;;1.97;;
1414;SDS011;702;49.466;11.086;2022-09-09T00:29:10;2.33;;;2.13;;
1414;SDS011;702;49.466;11.086;2022-09-09T00:31:59;4.50;;;1.90;;
1414;SDS011;702;49.466;11.086;2022-09-09T00:34:46;1.87;;;1.77;;
1414;SDS011;702;49.466;11.086;2022-09-09T00:37:16;2.00;;;1.70;;
1414;SDS011;702;49.466;11.086;2022-09-09T00:39:46;5.00;;;1.97;;
1414;SDS011;702;49.466;11.086;2022-09-09T00:42:18;2.47;;;1.50;;
1414;SDS011;702;49.466;11.086;2022-09-09T00:44:55;2.53;;;2.00;;
1414;SDS011;702;49.466;11.086;2022-09-09T00:47:33;2.17;;;1.97;;
1414;SDS011;702;49.466;11.086;2022-09-09T00:50:22;1.90;;;1.70;;
1414;SDS011;702;49.466;11.086;2022-09-09T00:53:05;5.70;;;1.83;;
1414;SDS011;702;49.466;11.086;2022-09-09T00:55:47;2.23;;;1.80;;
1414;SDS011;702;49.466;11.086;2022-09-09T00:58:20;1.90;;;1.80;;
1414;SDS011;702;49.466;11.086;2022-09-09T01:00:50;4.80;;;2.03;;
1414;SDS011;702;49.466;11.086;2022-09-09T01:03:28;5.83;;;2.40;;
1414;SDS011;702;49.466;11.086;2022-09-09T01:06:01;1.80;;;1.70;;
1414;SDS011;702;49.466;11.086;2022-09-09T01:09:01;2.97;;;1.63;;
1414;SDS011;702;49.466;11.086;2022-09-09T01:11:41;3.10;;;1.87;;
1414;SDS011;702;49.466;11.086;2022-09-09T01:14:24;2.17;;;1.97;;
1414;SDS011;702;49.466;11.086;2022-09-09T01:17:06;2.33;;;2.00;;
1414;SDS011;702;49.466;11.086;2022-09-09T01:19:48;1.57;;;1.47;;
1414;SDS011;702;49.466;11.086;2022-09-09T01:22:29;3.13;;;1.87;;
1414;SDS011;702;49.466;11.086;2022-09-09T01:25:18;2.77;;;1.57;;
1414;SDS011;702;49.466;11.086;2022-09-09T01:27:56;2.20;;;2.00;;
1414;SDS011;702;49.466;11.086;2022-09-09T01:30:28;3.90;;;1.80;;
1414;SDS011;702;49.466;11.086;2022-09-09T01:32:56;1.57;;;1.47;;
1414;SDS011;702;49.466;11.086;2022-09-09T01:35:29;2.67;;;1.90;;
1414;SDS011;702;49.466;11.086;2022-09-09T01:38:06;1.90;;;1.70;;
1414;SDS011;702;49.466;11.086;2022-09-09T01:40:33;5.50;;;2.00;;
1414;SDS011;702;49.466;11.086;2022-09-09T01:43:03;2.00;;;1.90;;
1414;SDS011;702;49.466;11.086;2022-09-09T01:45:31;4.17;;;2.30;;
1414;SDS011;702;49.466;11.086;2022-09-09T01:47:59;4.67;;;2.00;;
1414;SDS011;702;49.466;11.086;2022-09-09T01:50:28;3.47;;;1.53;;
1414;SDS011;702;49.466;11.086;2022-09-09T01:52:56;4.00;;;1.73;;
1414;SDS011;702;49.466;11.086;2022-09-09T01:55:28;2.03;;;1.83;;
1414;SDS011;702;49.466;11.086;2022-09-09T01:58:01;2.53;;;1.73;;
1414;SDS011;702;49.466;11.086;2022-09-09T02:00:48;3.43;;;1.80;;
1414;SDS011;702;49.466;11.086;2022-09-09T02:03:23;3.70;;;2.00;;
1414;SDS011;702;49.466;11.086;2022-09-09T02:05:57;3.77;;;2.27;;
1414;SDS011;702;49.466;11.086;2022-09-09T02:08:36;2.93;;;2.03;;
1414;SDS011;702;49.466;11.086;2022-09-09T02:11:11;3.23;;;2.23;;
1414;SDS011;702;49.466;11.086;2022-09-09T02:13:43;4.53;;;2.10;;
1414;SDS011;702;49.466;11.086;2022-09-09T02:16:13;2.20;;;1.70;;
1414;SDS011;702;49.466;11.086;2022-09-09T02:18:48;1.90;;;1.80;;
1414;SDS011;702;49.466;11.086;2022-09-09T02:21:20;3.73;;;1.80;;
1414;SDS011;702;49.466;11.086;2022-09-09T02:23:49;2.60;;;2.40;;
1414;SDS011;702;49.466;11.086;2022-09-09T02:26:18;3.30;;;2.40;;
1414;SDS011;702;49.466;11.086;2022-09-09T02:28:50;3.73;;;2.40;;
1414;SDS011;702;49.466;11.086;2022-09-09T02:31:20;3.10;;;2.10;;
1414;SDS011;702;49.466;11.086;2022-09-09T02:33:52;5.87;;;2.50;;
1414;SDS011;702;49.466;11.086;2022-09-09T02:36:23;1.97;;;1.70;;
1414;SDS011;702;49.466;11.086;2022-09-09T02:38:54;3.00;;;1.87;;
1414;SDS011;702;49.466;11.086;2022-09-09T02:41:24;1.93;;;1.70;;
1414;SDS011;702;49.466;11.086;2022-09-09T02:43:58;5.33;;;2.17;;
1414;SDS011;702;49.466;11.086;2022-09-09T02:46:32;2.33;;;1.73;;
1414;SDS011;702;49.466;11.086;2022-09-09T02:49:17;2.77;;;1.60;;
1414;SDS011;702;49.466;11.086;2022-09-09T02:51:53;3.40;;;1.87;;
1414;SDS011;702;49.466;11.086;2022-09-09T02:54:27;2.47;;;1.90;;
1414;SDS011;702;49.466;11.086;2022-09-09T02:56:58;3.63;;;2.00;;
1414;SDS011;702;49.466;11.086;2022-09-09T02:59:34;1.97;;;1.80;;
1414;SDS011;702;49.466;11.086;2022-09-09T03:02:01;3.53;;;1.70;;
1414;SDS011;702;49.466;11.086;2022-09-09T03:04:30;1.77;;;1.47;;
1414;SDS011;702;49.466;11.086;2022-09-09T03:06:58;2.80;;;1.83;;
1414;SDS011;702;49.466;11.086;2022-09-09T03:09:25;3.50;;;2.17;;
1414;SDS011;702;49.466;11.086;2022-09-09T03:11:53;3.70;;;1.93;;
1414;SDS011;702;49.466;11.086;2022-09-09T03:14:20;2.53;;;1.93;;
1414;SDS011;702;49.466;11.086;2022-09-09T03:16:51;2.13;;;1.70;;
1414;SDS011;702;49.466;11.086;2022-09-09T03:19:19;2.03;;;1.80;;
1414;SDS011;702;49.466;11.086;2022-09-09T03:21:47;4.50;;;2.40;;
1414;SDS011;702;49.466;11.086;2022-09-09T03:24:15;2.80;;;2.10;;
1414;SDS011;702;49.466;11.086;2022-09-09T03:26:42;2.40;;;2.10;;
1414;SDS011;702;49.466;11.086;2022-09-09T03:29:11;3.90;;;2.00;;
1414;SDS011;702;49.466;11.086;2022-09-09T03:31:40;2.50;;;2.30;;
1414;SDS011;702;49.466;11.086;2022-09-09T03:34:08;3.03;;;1.80;;
1414;SDS011;702;49.466;11.086;2022-09-09T03:36:36;3.57;;;1.63;;
1414;SDS011;702;49.466;11.086;2022-09-09T03:39:04;2.13;;;1.80;;
1414;SDS011;702;49.466;11.086;2022-09-09T03:41:31;2.87;;;2.07;;
1414;SDS011;702;49.466;11.086;2022-09-09T03:43:59;2.30;;;2.10;;
1414;SDS011;702;49.466;11.086;2022-09-09T03:46:26;2.47;;;1.87;;
1414;SDS011;702;49.466;11.086;2022-09-09T03:48:53;1.77;;;1.63;;
1414;SDS011;702;49.466;11.086;2022-09-09T03:51:22;2.70;;;2.10;;
1414;SDS011;702;49.466;11.086;2022-09-09T03:53:49;3.30;;;1.87;;
1414;SDS011;702;49.466;11.086;2022-09-09T03:56:17;1.90;;;1.80;;
1414;SDS011;702;49.466;11.086;2022-09-09T03:58:47;3.00;;;1.80;;
1414;SDS011;702;49.466;11.086;2022-09-09T04:01:14;3.77;;;1.60;;
1414;SDS011;702;49.466;11.086;2022-09-09T04:03:43;2.13;;;1.60;;
1414;SDS011;702;49.466;11.086;2022-09-09T04:06:11;2.33;;;1.90;;
1414;SDS011;702;49.466;11.086;2022-09-09T04:08:42;3.30;;;2.23;;
1414;SDS011;702;49.466;11.086;2022-09-09T04:11:10;3.53;;;1.90;;
1414;SDS011;702;49.466;11.086;2022-09-09T04:13:38;3.20;;;1.80;;
1414;SDS011;702;49.466;11.086;2022-09-09T04:16:05;9.40;;;1.93;;
1414;SDS011;702;49.466;11.086;2022-09-09T04:18:34;6.13;;;2.27;;
1414;SDS011;702;49.466;11.086;2022-09-09T04:21:02;5.60;;;2.57;;
1414;SDS011;702;49.466;11.086;2022-09-09T04:23:32;2.60;;;2.20;;
1414;SDS011;702;49.466;11.086;2022-09-09T04:26:01;4.80;;;2.80;;
1414;SDS011;702;49.466;11.086;2022-09-09T04:28:29;6.40;;;2.60;;
1414;SDS011;702;49.466;11.086;2022-09-09T04:31:03;2.50;;;2.30;;
1414;SDS011;702;49.466;11.086;2022-09-09T04:33:33;3.07;;;2.77;;
1414;SDS011;702;49.466;11.086;2022-09-09T04:36:01;3.37;;;2.50;;
1414;SDS011;702;49.466;11.086;2022-09-09T04:38:28;5.47;;;2.43;;
1414;SDS011;702;49.466;11.086;2022-09-09T04:40:56;3.30;;;2.50;;
1414;SDS011;702;49.466;11.086;2022-09-09T04:43:25;2.60;;;2.40;;
1414;SDS011;702;49.466;11.086;2022-09-09T04:45:52;2.87;;;2.67;;
1414;SDS011;702;49.466;11.086;2022-09-09T04:48:20;3.10;;;2.10;;
1414;SDS011;702;49.466;11.086;2022-09-09T04:50:56;3.53;;;2.17;;
1414;SDS011;702;49.466;11.086;2022-09-09T04:53:24;2.40;;;2.20;;
1414;SDS011;702;49.466;11.086;2022-09-09T04:55:52;6.33;;;2.77;;
1414;SDS011;702;49.466;11.086;2022-09-09T04:58:29;4.70;;;2.73;;
1414;SDS011;702;49.466;11.086;2022-09-09T05:01:02;7.20;;;2.10;;
1414;SDS011;702;49.466;11.086;2022-09-09T05:03:32;2.60;;;2.40;;
1414;SDS011;702;49.466;11.086;2022-09-09T05:06:06;4.00;;;2.50;;
1414;SDS011;702;49.466;11.086;2022-09-09T05:08:35;2.83;;;2.33;;
1414;SDS011;702;49.466;11.086;2022-09-09T05:11:03;3.20;;;2.87;;
1414;SDS011;702;49.466;11.086;2022-09-09T05:13:32;4.53;;;2.53;;
1414;SDS011;702;49.466;11.086;2022-09-09T05:15:59;4.43;;;2.70;;
1414;SDS011;702;49.466;11.086;2022-09-09T05:18:26;3.03;;;2.73;;
1414;SDS011;702;49.466;11.086;2022-09-09T05:20:58;4.10;;;2.43;;
1414;SDS011;702;49.466;11.086;2022-09-09T05:23:26;2.40;;;2.20;;
1414;SDS011;702;49.466;11.086;2022-09-09T05:25:54;4.63;;;2.90;;
1414;SDS011;702;49.466;11.086;2022-09-09T05:28:22;3.20;;;2.90;;
1414;SDS011;702;49.466;11.086;2022-09-09T05:30:58;7.13;;;2.83;;
1414;SDS011;702;49.466;11.086;2022-09-09T05:33:29;3.83;;;2.90;;
1414;SDS011;702;49.466;11.086;2022-09-09T05:35:57;3.40;;;2.67;;
1414;SDS011;702;49.466;11.086;2022-09-09T05:38:25;4.50;;;2.60;;
1414;SDS011;702;49.466;11.086;2022-09-09T05:40:53;7.10;;;2.73;;
1414;SDS011;702;49.466;11.086;2022-09-09T05:43:20;3.00;;;2.80;;
1414;SDS011;702;49.466;11.086;2022-09-09T05:45:48;3.30;;;2.20;;
1414;SDS011;702;49.466;11.086;2022-09-09T05:48:31;7.30;;;2.70;;
1414;SDS011;702;49.466;11.086;2022-09-09T05:50:59;7.77;;;2.63;;
1414;SDS011;702;49.466;11.086;2022-09-09T05:53:28;4.30;;;3.17;;
1414;SDS011;702;49.466;11.086;2022-09-09T05:56:01;5.07;;;2.67;;
1414;SDS011;702;49.466;11.086;2022-09-09T05:58:31;4.50;;;3.10;;
1414;SDS011;702;49.466;11.086;2022-09-09T06:01:03;4.43;;;3.20;;
1414;SDS011;702;49.466;11.086;2022-09-09T06:03:33;4.10;;;2.57;;
1414;SDS011;702;49.466;11.086;2022-09-09T06:06:03;4.07;;;2.97;;
1414;SDS011;702;49.466;11.086;2022-09-09T06:08:32;4.40;;;2.63;;
1414;SDS011;702;49.466;11.086;2022-09-09T06:11:02;4.90;;;3.30;;
1414;SDS011;702;49.466;11.086;2022-09-09T06:13:34;7.50;;;3.63;;
1414;SDS011;702;49.466;11.086;2022-09-09T06:16:03;7.07;;;3.20;;
1414;SDS011;702;49.466;11.086;2022-09-09T06:18:32;5.20;;;2.97;;
1414;SDS011;702;49.466;11.086;2022-09-09T06:21:00;4.37;;;3.10;;
1414;SDS011;702;49.466;11.086;2022-09-09T06:23:30;6.03;;;2.90;;
1414;SDS011;702;49.466;11.086;2022-09-09T06:26:04;4.37;;;3.20;;
1414;SDS011;702;49.466;11.086;2022-09-09T06:28:33;7.50;;;3.60;;
1414;SDS011;702;49.466;11.086;2022-09-09T06:31:02;3.43;;;3.13;;
1414;SDS011;702;49.466;11.086;2022-09-09T06:33:35;4.73;;;3.10;;
1414;SDS011;702;49.466;11.086;2022-09-09T06:36:06;8.50;;;3.50;;
1414;SDS011;702;49.466;11.086;2022-09-09T06:38:37;4.53;;;3.13;;
1414;SDS011;702;49.466;11.086;2022-09-09T06:41:05;3.50;;;2.60;;
1414;SDS011;702;49.466;11.086;2022-09-09T06:43:32;5.93;;;3.00;;
1414;SDS011;702;49.466;11.086;2022-09-09T06:46:00;3.07;;;2.77;;
1414;SDS011;702;49.466;11.086;2022-09-09T06:48:32;7.57;;;2.77;;
1414;SDS011;702;49.466;11.086;2022-09-09T06:51:00;2.93;;;2.37;;
1414;SDS011;702;49.466;11.086;2022-09-09T06:53:29;3.90;;;2.70;;
1414;SDS011;702;49.466;11.086;2022-09-09T06:55:58;3.63;;;3.00;;
1414;SDS011;702;49.466;11.086;2022-09-09T06:58:27;3.17;;;2.67;;
1414;SDS011;702;49.466;11.086;2022-09-09T07:01:01;3.47;;;1.90;;
1414;SDS011;702;49.466;11.086;2022-09-09T07:03:29;4.17;;;2.73;;
1414;SDS011;702;49.466;11.086;2022-09-09T07:05:58;2.97;;;2.40;;
1414;SDS011;702;49.466;11.086;2022-09-09T07:08:25;3.20;;;2.43;;
1414;SDS011;702;49.466;11.086;2022-09-09T07:10:53;4.03;;;2.53;;
1414;SDS011;702;49.466;11.086;2022-09-09T07:13:23;4.53;;;2.90;;
1414;SDS011;702;49.466;11.086;2022-09-09T07:15:50;4.40;;;2.33;;
1414;SDS011;702;49.466;11.086;2022-09-09T07:18:18;3.67;;;2.10;;
1414;SDS011;702;49.466;11.086;2022-09-09T07:20:52;2.93;;;2.57;;
1414;SDS011;702;49.466;11.086;2022-09-09T07:23:23;3.37;;;2.30;;
1414;SDS011;702;49.466;11.086;2022-09-09T07:25:51;2.70;;;2.17;;
1414;SDS011;702;49.466;11.086;2022-09-09T07:28:18;3.30;;;2.37;;
1414;SDS011;702;49.466;11.086;2022-09-09T07:30:52;4.30;;;2.27;;
1414;SDS011;702;49.466;11.086;2022-09-09T07:33:20;2.60;;;2.07;;
1414;SDS011;702;49.466;11.086;2022-09-09T07:35:48;3.70;;;2.97;;
1414;SDS011;702;49.466;11.086;2022-09-09T07:38:15;4.90;;;2.17;;
1414;SDS011;702;49.466;11.086;2022-09-09T07:40:44;3.30;;;2.30;;
1414;SDS011;702;49.466;11.086;2022-09-09T07:43:11;10.23;;;3.10;;
1414;SDS011;702;49.466;11.086;2022-09-09T07:45:39;5.87;;;2.93;;
1414;SDS011;702;49.466;11.086;2022-09-09T07:48:08;4.50;;;2.47;;
1414;SDS011;702;49.466;11.086;2022-09-09T07:50:36;4.23;;;2.40;;
1414;SDS011;702;49.466;11.086;2022-09-09T07:53:04;3.83;;;2.27;;
1414;SDS011;702;49.466;11.086;2022-09-09T07:55:31;2.90;;;2.23;;
1414;SDS011;702;49.466;11.086;2022-09-09T07:57:59;3.07;;;1.97;;
1414;SDS011;702;49.466;11.086;2022-09-09T08:00:27;4.60;;;2.17;;
1414;SDS011;702;49.466;11.086;2022-09-09T08:02:54;2.50;;;2.30;;
1414;SDS011;702;49.466;11.086;2022-09-09T08:05:22;3.20;;;2.60;;
1414;SDS011;702;49.466;11.086;2022-09-09T08:07:50;2.23;;;2.03;;
1414;SDS011;702;49.466;11.086;2022-09-09T08:10:17;4.30;;;2.70;;
1414;SDS011;702;49.466;11.086;2022-09-09T08:12:44;3.17;;;2.20;;
1414;SDS011;702;49.466;11.086;2022-09-09T08:15:13;4.63;;;2.03;;
1414;SDS011;702;49.466;11.086;2022-09-09T08:17:40;5.33;;;3.30;;
1414;SDS011;702;49.466;11.086;2022-09-09T08:20:09;4.87;;;2.80;;
1414;SDS011;702;49.466;11.086;2022-09-09T08:22:36;2.80;;;2.10;;
1414;SDS011;702;49.466;11.086;2022-09-09T08:25:04;4.20;;;2.23;;
1414;SDS011;702;49.466;11.086;2022-09-09T08:27:33;6.27;;;2.00;;
1414;SDS011;702;49.466;11.086;2022-09-09T08:30:01;3.67;;;1.23;;
1414;SDS011;702;49.466;11.086;2022-09-09T08:32:30;5.13;;;1.73;;
1414;SDS011;702;49.466;11.086;2022-09-09T08:34:57;2.43;;;1.60;;
1414;SDS011;702;49.466;11.086;2022-09-09T08:37:24;5.13;;;1.50;;
1414;SDS011;702;49.466;11.086;2022-09-09T08:39:52;2.23;;;1.57;;
1414;SDS011;702;49.466;11.086;2022-09-09T08:42:25;2.47;;;1.50;;
1414;SDS011;702;49.466;11.086;2022-09-09T08:48:00;3.40;;;1.53;;
1414;SDS011;702;49.466;11.086;2022-09-09T08:50:49;2.97;;;1.57;;
1414;SDS011;702;49.466;11.086;2022-09-09T08:53:19;3.20;;;1.97;;
1414;SDS011;702;49.466;11.086;2022-09-09T08:55:50;3.00;;;1.73;;
1414;SDS011;702;49.466;11.086;2022-09-09T08:58:20;3.90;;;1.80;;
1414;SDS011;702;49.466;11.086;2022-09-09T09:00:54;3.93;;;1.33;;
1414;SDS011;702;49.466;11.086;2022-09-09T09:03:42;3.30;;;1.47;;
1414;SDS011;702;49.466;11.086;2022-09-09T09:06:19;3.33;;;1.47;;
1414;SDS011;702;49.466;11.086;2022-09-09T09:09:08;3.20;;;1.57;;
1414;SDS011;702;49.466;11.086;2022-09-09T09:11:46;2.20;;;1.27;;
1414;SDS011;702;49.466;11.086;2022-09-09T09:14:17;2.87;;;1.50;;
1414;SDS011;702;49.466;11.086;2022-09-09T09:16:49;2.80;;;1.20;;
1414;SDS011;702;49.466;11.086;2022-09-09T09:19:21;3.60;;;1.33;;
1414;SDS011;702;49.466;11.086;2022-09-09T09:21:53;8.43;;;1.67;;
1414;SDS011;702;49.466;11.086;2022-09-09T09:24:26;4.33;;;1.10;;
1414;SDS011;702;49.466;11.086;2022-09-09T09:27:07;1.30;;;0.97;;
1414;SDS011;702;49.466;11.086;2022-09-09T09:29:41;1.67;;;1.20;;
1414;SDS011;702;49.466;11.086;2022-09-09T09:32:10;1.57;;;1.03;;
1414;SDS011;702;49.466;11.086;2022-09-09T09:34:49;4.00;;;1.00;;
1414;SDS011;702;49.466;11.086;2022-09-09T09:37:20;4.23;;;0.97;;
1414;SDS011;702;49.466;11.086;2022-09-09T09:39:54;3.17;;;1.27;;
1414;SDS011;702;49.466;11.086;2022-09-09T09:42:21;4.20;;;1.23;;
1414;SDS011;702;49.466;11.086;2022-09-09T09:44:49;2.60;;;1.00;;
1414;SDS011;702;49.466;11.086;2022-09-09T09:47:18;1.53;;;0.87;;
1414;SDS011;702;49.466;11.086;2022-09-09T09:49:53;3.17;;;0.93;;
1414;SDS011;702;49.466;11.086;2022-09-09T09:52:21;1.17;;;0.60;;
1414;SDS011;702;49.466;11.086;2022-09-09T09:54:51;3.03;;;1.00;;
1414;SDS011;702;49.466;11.086;2022-09-09T09:57:22;1.87;;;0.80;;
1414;SDS011;702;49.466;11.086;2022-09-09T10:00:02;1.00;;;0.90;;
1414;SDS011;702;49.466;11.086;2022-09-09T10:02:40;1.87;;;0.70;;
1414;SDS011;702;49.466;11.086;2022-09-09T10:05:17;2.00;;;0.90;;
1414;SDS011;702;49.466;11.086;2022-09-09T10:07:46;2.90;;;1.17;;
1414;SDS011;702;49.466;11.086;2022-09-09T10:10:29;1.53;;;0.87;;
1414;SDS011;702;49.466;11.086;2022-09-09T10:13:15;1.17;;;0.93;;
1414;SDS011;702;49.466;11.086;2022-09-09T10:15:52;3.20;;;1.00;;
1414;SDS011;702;49.466;11.086;2022-09-09T10:18:42;2.93;;;1.40;;
1414;SDS011;702;49.466;11.086;2022-09-09T10:21:27;3.13;;;1.00;;
1414;SDS011;702;49.466;11.086;2022-09-09T10:27:11;1.97;;;0.97;;
1414;SDS011;702;49.466;11.086;2022-09-09T10:32:38;2.30;;;0.93;;
1414;SDS011;702;49.466;11.086;2022-09-09T10:35:14;4.43;;;1.03;;
1414;SDS011;702;49.466;11.086;2022-09-09T10:38:01;2.77;;;0.70;;
1414;SDS011;702;49.466;11.086;2022-09-09T10:40:46;1.60;;;0.90;;
1414;SDS011;702;49.466;11.086;2022-09-09T10:47:06;3.50;;;1.20;;
1414;SDS011;702;49.466;11.086;2022-09-09T10:50:13;1.57;;;1.20;;
1414;SDS011;702;49.466;11.086;2022-09-09T10:52:58;1.57;;;0.87;;
1414;SDS011;702;49.466;11.086;2022-09-09T10:55:39;2.30;;;1.20;;
1414;SDS011;702;49.466;11.086;2022-09-09T10:58:10;3.47;;;1.10;;
1414;SDS011;702;49.466;11.086;2022-09-09T11:00:47;2.43;;;0.93;;
1414;SDS011;702;49.466;11.086;2022-09-09T11:03:20;3.23;;;0.90;;
1414;SDS011;702;49.466;11.086;2022-09-09T11:05:53;1.60;;;1.20;;
1414;SDS011;702;49.466;11.086;2022-09-09T11:08:29;3.07;;;0.70;;
1414;SDS011;702;49.466;11.086;2022-09-09T11:11:01;2.40;;;1.23;;
1414;SDS011;702;49.466;11.086;2022-09-09T11:13:32;3.33;;;1.23;;
1414;SDS011;702;49.466;11.086;2022-09-09T11:16:13;2.43;;;1.20;;
1414;SDS011;702;49.466;11.086;2022-09-09T11:18:50;1.93;;;0.90;;
1414;SDS011;702;49.466;11.086;2022-09-09T11:21:41;2.63;;;0.83;;
1414;SDS011;702;49.466;11.086;2022-09-09T11:24:16;4.10;;;1.33;;
1414;SDS011;702;49.466;11.086;2022-09-09T11:26:49;1.97;;;1.03;;
1414;SDS011;702;49.466;11.086;2022-09-09T11:29:36;2.10;;;0.97;;
1414;SDS011;702;49.466;11.086;2022-09-09T11:32:27;2.60;;;1.30;;
1414;SDS011;702;49.466;11.086;2022-09-09T11:35:28;2.03;;;0.80;;
1414;SDS011;702;49.466;11.086;2022-09-09T11:38:08;2.73;;;1.20;;
1414;SDS011;702;49.466;11.086;2022-09-09T11:40:46;1.90;;;0.67;;
1414;SDS011;702;49.466;11.086;2022-09-09T11:43:25;1.37;;;0.90;;
1414;SDS011;702;49.466;11.086;2022-09-09T11:45:56;7.40;;;1.40;;
1414;SDS011;702;49.466;11.086;2022-09-09T11:48:37;2.00;;;1.10;;
1414;SDS011;702;49.466;11.086;2022-09-09T11:51:09;5.87;;;1.10;;
1414;SDS011;702;49.466;11.086;2022-09-09T11:53:48;2.23;;;0.90;;
1414;SDS011;702;49.466;11.086;2022-09-09T11:56:27;2.30;;;1.07;;
1414;SDS011;702;49.466;11.086;2022-09-09T11:58:57;2.20;;;1.50;;
1414;SDS011;702;49.466;11.086;2022-09-09T12:01:34;1.83;;;0.90;;
1414;SDS011;702;49.466;11.086;2022-09-09T12:04:12;1.80;;;0.90;;
1414;SDS011;702;49.466;11.086;2022-09-09T12:06:54;2.97;;;0.80;;
1414;SDS011;702;49.466;11.086;2022-09-09T12:09:27;5.60;;;1.30;;
1414;SDS011;702;49.466;11.086;2022-09-09T12:12:07;2.20;;;0.83;;
1414;SDS011;702;49.466;11.086;2022-09-09T12:15:00;1.77;;;1.03;;
1414;SDS011;702;49.466;11.086;2022-09-09T12:17:50;4.50;;;1.10;;
1414;SDS011;702;49.466;11.086;2022-09-09T12:20:20;1.13;;;0.90;;
1414;SDS011;702;49.466;11.086;2022-09-09T12:22:57;2.60;;;1.40;;
1414;SDS011;702;49.466;11.086;2022-09-09T12:25:58;2.27;;;1.30;;
1414;SDS011;702;49.466;11.086;2022-09-09T12:28:51;2.50;;;0.80;;
1414;SDS011;702;49.466;11.086;2022-09-09T12:31:30;2.57;;;1.13;;
1414;SDS011;702;49.466;11.086;2022-09-09T12:34:08;2.50;;;0.70;;
1414;SDS011;702;49.466;11.086;2022-09-09T12:36:38;1.40;;;0.70;;
1414;SDS011;702;49.466;11.086;2022-09-09T12:39:10;1.83;;;0.63;;
1414;SDS011;702;49.466;11.086;2022-09-09T12:41:52;2.20;;;1.07;;
1414;SDS011;702;49.466;11.086;2022-09-09T12:44:24;2.50;;;0.60;;
1414;SDS011;702;49.466;11.086;2022-09-09T12:46:54;0.93;;;0.53;;
1414;SDS011;702;49.466;11.086;2022-09-09T12:49:29;3.90;;;0.80;;
1414;SDS011;702;49.466;11.086;2022-09-09T12:52:01;1.57;;;1.10;;
1414;SDS011;702;49.466;11.086;2022-09-09T12:54:32;4.67;;;1.10;;
1414;SDS011;702;49.466;11.086;2022-09-09T12:57:01;2.27;;;1.00;;
1414;SDS011;702;49.466;11.086;2022-09-09T12:59:36;2.50;;;0.70;;
1414;SDS011;702;49.466;11.086;2022-09-09T13:02:11;2.93;;;1.50;;
1414;SDS011;702;49.466;11.086;2022-09-09T13:04:45;2.20;;;1.07;;
1414;SDS011;702;49.466;11.086;2022-09-09T13:07:13;5.03;;;1.10;;
1414;SDS011;702;49.466;11.086;2022-09-09T13:09:41;3.93;;;1.10;;
1414;SDS011;702;49.466;11.086;2022-09-09T13:12:11;1.70;;;0.60;;
1414;SDS011;702;49.466;11.086;2022-09-09T13:14:45;5.50;;;0.77;;
1414;SDS011;702;49.466;11.086;2022-09-09T13:17:17;1.90;;;0.90;;
1414;SDS011;702;49.466;11.086;2022-09-09T13:19:48;1.97;;;0.73;;
1414;SDS011;702;49.466;11.086;2022-09-09T13:22:20;1.83;;;0.70;;
1414;SDS011;702;49.466;11.086;2022-09-09T13:24:59;2.20;;;0.80;;
1414;SDS011;702;49.466;11.086;2022-09-09T13:27:32;1.57;;;0.80;;
1414;SDS011;702;49.466;11.086;2022-09-09T13:30:21;2.23;;;0.70;;
1414;SDS011;702;49.466;11.086;2022-09-09T13:33:01;1.90;;;1.00;;
1414;SDS011;702;49.466;11.086;2022-09-09T13:35:32;2.20;;;0.60;;
1414;SDS011;702;49.466;11.086;2022-09-09T13:38:06;3.40;;;0.90;;
1414;SDS011;702;49.466;11.086;2022-09-09T13:40:35;1.60;;;1.00;;
1414;SDS011;702;49.466;11.086;2022-09-09T13:43:04;4.33;;;0.90;;
1414;SDS011;702;49.466;11.086;2022-09-09T13:45:32;1.63;;;0.90;;
1414;SDS011;702;49.466;11.086;2022-09-09T13:48:08;7.23;;;1.13;;
1414;SDS011;702;49.466;11.086;2022-09-09T13:50:37;2.03;;;0.87;;
1414;SDS011;702;49.466;11.086;2022-09-09T13:53:07;3.47;;;0.70;;
1414;SDS011;702;49.466;11.086;2022-09-09T13:55:35;0.90;;;0.53;;
1414;SDS011;702;49.466;11.086;2022-09-09T13:58:04;2.00;;;1.30;;
1414;SDS011;702;49.466;11.086;2022-09-09T14:00:33;1.50;;;0.67;;
1414;SDS011;702;49.466;11.086;2022-09-09T14:03:02;0.70;;;0.60;;
1414;SDS011;702;49.466;11.086;2022-09-09T14:05:29;1.27;;;0.80;;
1414;SDS011;702;49.466;11.086;2022-09-09T14:07:59;1.13;;;0.60;;
1414;SDS011;702;49.466;11.086;2022-09-09T14:10:27;3.40;;;1.00;;
1414;SDS011;702;49.466;11.086;2022-09-09T14:12:54;1.80;;;0.90;;
1414;SDS011;702;49.466;11.086;2022-09-09T14:15:22;2.10;;;0.60;;
1414;SDS011;702;49.466;11.086;2022-09-09T14:17:51;0.80;;;0.50;;
1414;SDS011;702;49.466;11.086;2022-09-09T14:20:19;1.30;;;0.63;;
1414;SDS011;702;49.466;11.086;2022-09-09T14:22:47;1.60;;;0.97;;
1414;SDS011;702;49.466;11.086;2022-09-09T14:25:15;2.53;;;0.90;;
1414;SDS011;702;49.466;11.086;2022-09-09T14:27:42;3.33;;;0.97;;
1414;SDS011;702;49.466;11.086;2022-09-09T14:30:11;1.30;;;0.70;;
1414;SDS011;702;49.466;11.086;2022-09-09T14:32:39;0.90;;;0.77;;
1414;SDS011;702;49.466;11.086;2022-09-09T14:35:08;2.00;;;0.90;;
1414;SDS011;702;49.466;11.086;2022-09-09T14:37:36;1.70;;;0.80;;
1414;SDS011;702;49.466;11.086;2022-09-09T14:40:05;2.20;;;1.17;;
1414;SDS011;702;49.466;11.086;2022-09-09T14:42:33;2.63;;;1.00;;
1414;SDS011;702;49.466;11.086;2022-09-09T14:45:00;1.13;;;0.70;;
1414;SDS011;702;49.466;11.086;2022-09-09T14:47:28;3.00;;;0.93;;
1414;SDS011;702;49.466;11.086;2022-09-09T14:49:55;1.87;;;1.00;;
1414;SDS011;702;49.466;11.086;2022-09-09T14:52:23;3.13;;;1.30;;
1414;SDS011;702;49.466;11.086;2022-09-09T14:54:51;3.80;;;1.00;;
1414;SDS011;702;49.466;11.086;2022-09-09T14:57:18;3.10;;;1.00;;
1414;SDS011;702;49.466;11.086;2022-09-09T14:59:46;3.57;;;1.00;;
1414;SDS011;702;49.466;11.086;2022-09-09T15:02:15;3.00;;;1.30;;
1414;SDS011;702;49.466;11.086;2022-09-09T15:04:43;8.67;;;1.27;;
1414;SDS011;702;49.466;11.086;2022-09-09T15:07:10;4.03;;;2.20;;
1414;SDS011;702;49.466;11.086;2022-09-09T15:09:40;4.77;;;1.30;;
1414;SDS011;702;49.466;11.086;2022-09-09T15:12:07;3.47;;;1.33;;
1414;SDS011;702;49.466;11.086;2022-09-09T15:14:35;2.80;;;1.00;;
1414;SDS011;702;49.466;11.086;2022-09-09T15:17:03;4.80;;;1.10;;
1414;SDS011;702;49.466;11.086;2022-09-09T15:19:30;3.13;;;1.10;;
1414;SDS011;702;49.466;11.086;2022-09-09T15:21:58;2.57;;;1.20;;
1414;SDS011;702;49.466;11.086;2022-09-09T15:24:25;3.30;;;3.00;;
1414;SDS011;702;49.466;11.086;2022-09-09T15:26:54;1.97;;;1.13;;
1414;SDS011;702;49.466;11.086;2022-09-09T15:29:21;4.47;;;1.40;;
1414;SDS011;702;49.466;11.086;2022-09-09T15:31:49;2.67;;;0.97;;
1414;SDS011;702;49.466;11.086;2022-09-09T15:34:16;4.83;;;1.33;;
1414;SDS011;702;49.466;11.086;2022-09-09T15:36:43;3.30;;;1.30;;
1414;SDS011;702;49.466;11.086;2022-09-09T15:39:12;2.37;;;1.03;;
1414;SDS011;702;49.466;11.086;2022-09-09T15:41:42;2.63;;;1.07;;
1414;SDS011;702;49.466;11.086;2022-09-09T15:44:11;2.03;;;1.37;;
1414;SDS011;702;49.466;11.086;2022-09-09T15:46:39;2.60;;;0.80;;
1414;SDS011;702;49.466;11.086;2022-09-09T15:49:08;1.57;;;1.13;;
1414;SDS011;702;49.466;11.086;2022-09-09T15:51:38;3.07;;;1.00;;
1414;SDS011;702;49.466;11.086;2022-09-09T15:54:08;2.80;;;1.00;;
1414;SDS011;702;49.466;11.086;2022-09-09T15:56:37;3.73;;;0.87;;
1414;SDS011;702;49.466;11.086;2022-09-09T15:59:04;4.30;;;1.20;;